Time;durP1;ratioP1;P1;durP2;ratioP2;P2;SDS_P1;SDS_P2;PMS_P1;PMS_P2;Temp;Humidity;BMP_temperature;BMP_pressure;BME280_temperature;BME280_humidity;BME280_pressure;Samples;Min_cycle;Max_cycle;Signal;HPM_P1;HPM_P2
2022/04/09 00:01:56;;;;;;;;;;;;;;;4.37;100.00;100522.25;5116485;27;19916;-67
2022/04/09 00:04:21;;;;;;;;;;;;;;;4.37;100.00;100519.63;5116288;27;19927;-67
2022/04/09 00:06:46;;;;;;;;;;;;;;;4.44;100.00;100529.97;5134532;27;20389;-68
2022/04/09 00:09:12;;;;;;;;;;;;;;;4.61;100.00;100534.84;5134825;27;19916;-67
2022/04/09 00:11:37;;;;;;;;;;;;;;;4.66;100.00;100535.59;5134725;27;20259;-67
2022/04/09 00:14:02;;;;;;;;;;;;;;;4.63;100.00;100546.22;5134739;27;19915;-68
2022/04/09 00:16:27;;;;;;;;;;;;;;;4.53;100.00;100540.28;5116383;27;19964;-68
2022/04/09 00:18:52;;;;;;;;;;;;;;;4.44;100.00;100552.78;5116270;27;19921;-68
2022/04/09 00:21:18;;;;;;;;;;;;;;;4.34;100.00;100546.88;5134609;27;19951;-68
2022/04/09 00:23:43;;;;;;;;;;;;;;;4.25;100.00;100547.06;5134414;27;19929;-68
2022/04/09 00:26:08;;;;;;;;;;;;;;;4.20;100.00;100555.94;5134617;27;19916;-68
2022/04/09 00:28:33;;;;;;;;;;;;;;;4.11;100.00;100564.88;5134709;27;19951;-67
2022/04/09 00:30:58;;;;;;;;;;;;;;;4.14;100.00;100563.97;5135054;27;20423;-67
2022/04/09 00:33:24;;;;;;;;;;;;;;;4.31;100.00;100567.09;5134987;27;19931;-67
2022/04/09 00:35:49;;;;;;;;;;;;;;;4.26;100.00;100566.31;5116485;27;19939;-67
2022/04/09 00:38:14;;;;;;;;;;;;;;;4.17;100.00;100580.53;5135006;27;19916;-67
2022/04/09 00:40:39;;;;;;;;;;;;;;;4.03;100.00;100576.47;5116216;28;19966;-68
2022/04/09 00:43:05;;;;;;;;;;;;;;;3.96;100.00;100580.97;5134574;28;19964;-68
2022/04/09 00:45:30;;;;;;;;;;;;;;;3.98;100.00;100588.81;5115412;28;20254;-67
2022/04/09 00:47:55;;;;;;;;;;;;;;;4.12;100.00;100586.78;5134141;28;20355;-67
2022/04/09 00:50:21;;;;;;;;;;;;;;;4.31;100.00;100593.38;5115987;28;19916;-67
2022/04/09 00:52:47;;;;;;;;;;;;;;;4.46;100.00;100596.53;5115866;28;19958;-68
2022/04/09 00:55:13;;;;;;;;;;;;;;;4.36;100.00;100596.78;5134338;28;19915;-68
2022/04/09 00:57:40;;;;;;;;;;;;;;;4.46;100.00;100607.06;5134662;28;19916;-67
2022/04/09 01:00:09;;;;;;;;;;;;;;;4.38;100.00;100600.25;5134243;28;19916;-67
2022/04/09 01:02:44;;;;;;;;;;;;;;;4.32;100.00;100610.88;5134410;28;20342;-68
2022/04/09 01:05:10;;;;;;;;;;;;;;;4.26;100.00;100613.63;5134291;28;19916;-68
2022/04/09 01:07:36;;;;;;;;;;;;;;;4.27;100.00;100610.13;5134119;28;20408;-68
2022/04/09 01:10:26;;;;;;;;;;;;;;;4.24;100.00;100620.66;5115852;28;19973;-67
2022/04/09 01:12:51;;;;;;;;;;;;;;;4.41;100.00;100622.06;5115860;28;19923;-67
2022/04/09 01:15:17;;;;;;;;;;;;;;;4.25;100.00;100628.56;5134176;28;19919;-67
2022/04/09 01:17:42;;;;;;;;;;;;;;;4.45;100.00;100633.38;5134170;28;19920;-68
2022/04/09 01:20:26;;;;;;;;;;;;;;;4.37;100.00;100632.66;5133987;28;20015;-68
2022/04/09 01:22:51;;;;;;;;;;;;;;;4.30;100.00;100631.09;5133892;28;20365;-68
2022/04/09 01:25:16;;;;;;;;;;;;;;;4.12;100.00;100636.69;5115763;28;19934;-68
2022/04/09 01:27:42;;;;;;;;;;;;;;;4.07;100.00;100646.44;5134353;28;19923;-68
2022/04/09 01:30:07;;;;;;;;;;;;;;;4.14;100.00;100650.69;5134314;28;19923;-68
2022/04/09 01:32:33;;;;;;;;;;;;;;;4.15;100.00;100665.53;5134692;28;19988;-67
2022/04/09 01:35:01;;;;;;;;;;;;;;;4.56;100.00;100670.84;5134060;28;19941;-68
2022/04/09 01:37:27;;;;;;;;;;;;;;;4.54;100.00;100670.88;5134104;28;19916;-68
2022/04/09 01:39:52;;;;;;;;;;;;;;;4.51;100.00;100675.31;5133931;28;19934;-68
2022/04/09 01:42:20;;;;;;;;;;;;;;;4.47;100.00;100677.16;5134096;28;20006;-67
2022/04/09 01:44:46;;;;;;;;;;;;;;;4.43;100.00;100675.50;5134505;28;20243;-68
2022/04/09 01:47:11;;;;;;;;;;;;;;;4.25;100.00;100686.38;5133915;28;19922;-68
2022/04/09 01:49:36;;;;;;;;;;;;;;;4.21;100.00;100686.44;5133834;28;19927;-67
2022/04/09 01:52:01;;;;;;;;;;;;;;;4.23;100.00;100687.28;5133941;28;19922;-67
2022/04/09 01:54:26;;;;;;;;;;;;;;;4.42;100.00;100686.91;5115302;28;20388;-67
2022/04/09 01:56:52;;;;;;;;;;;;;;;4.49;100.00;100693.75;5133682;27;19919;-68
2022/04/09 01:59:17;;;;;;;;;;;;;;;4.61;100.00;100674.25;5136539;27;19920;-68
2022/04/09 02:01:42;;;;;;;;;;;;;;;4.57;100.00;100683.06;5118823;27;19922;-68
2022/04/09 02:04:07;;;;;;;;;;;;;;;4.52;100.00;100675.28;5137377;27;20060;-67
2022/04/09 02:06:33;;;;;;;;;;;;;;;4.41;100.00;100679.91;5137588;27;19915;-67
2022/04/09 02:08:58;;;;;;;;;;;;;;;4.33;100.00;100676.56;5118902;27;19915;-67
2022/04/09 02:11:23;;;;;;;;;;;;;;;4.29;100.00;100689.78;5137132;27;20441;-67
2022/04/09 02:13:50;;;;;;;;;;;;;;;4.21;100.00;100678.56;5137292;27;20014;-68
2022/04/09 02:16:15;;;;;;;;;;;;;;;4.18;100.00;100676.88;5137061;27;19915;-67
2022/04/09 02:18:40;;;;;;;;;;;;;;;4.22;100.00;100688.19;5137037;27;19916;-68
2022/04/09 02:21:06;;;;;;;;;;;;;;;4.20;100.00;100692.63;5118584;27;19965;-67
2022/04/09 02:23:31;;;;;;;;;;;;;;;4.15;100.00;100697.97;5137499;27;19942;-67
2022/04/09 02:25:56;;;;;;;;;;;;;;;4.16;100.00;100698.84;5118759;27;19915;-68
2022/04/09 02:28:21;;;;;;;;;;;;;;;4.18;100.00;100704.91;5136779;27;19984;-68
2022/04/09 02:30:47;;;;;;;;;;;;;;;4.12;100.00;100708.53;5137222;27;19915;-67
2022/04/09 02:33:12;;;;;;;;;;;;;;;4.07;100.00;100712.13;5137106;27;19915;-67
2022/04/09 02:35:37;;;;;;;;;;;;;;;4.06;100.00;100718.28;5118569;27;19939;-67
2022/04/09 02:38:02;;;;;;;;;;;;;;;3.97;100.00;100719.31;5136973;27;19922;-68
2022/04/09 02:40:28;;;;;;;;;;;;;;;4.02;100.00;100722.72;5118313;27;19926;-67
2022/04/09 02:42:53;;;;;;;;;;;;;;;3.92;100.00;100726.44;5136657;27;19922;-68
2022/04/09 02:45:20;;;;;;;;;;;;;;;3.93;100.00;100732.53;5118101;27;19922;-68
2022/04/09 02:47:45;;;;;;;;;;;;;;;4.03;100.00;100736.75;5136619;27;19919;-68
2022/04/09 02:50:12;;;;;;;;;;;;;;;3.89;100.00;100730.88;5136355;27;19915;-67
2022/04/09 02:52:37;;;;;;;;;;;;;;;3.73;100.00;100746.03;5136651;27;19923;-68
2022/04/09 02:55:03;;;;;;;;;;;;;;;3.71;100.00;100749.53;5136124;27;19941;-67
2022/04/09 02:57:31;;;;;;;;;;;;;;;3.71;100.00;100747.78;5117617;27;20014;-67
2022/04/09 02:59:56;;;;;;;;;;;;;;;3.78;100.00;100753.81;5136376;27;19922;-67
2022/04/09 03:05:24;;;;;;;;;;;;;;;3.89;100.00;100760.59;5135914;27;19921;-67
2022/04/09 03:07:50;;;;;;;;;;;;;;;3.88;100.00;100760.63;5117522;27;20226;-66
2022/04/09 03:10:15;;;;;;;;;;;;;;;3.90;100.00;100761.47;5136168;27;19915;-68
2022/04/09 03:12:44;;;;;;;;;;;;;;;3.89;100.00;100762.38;5136005;27;19919;-67
2022/04/09 03:15:09;;;;;;;;;;;;;;;4.04;100.00;100759.47;5136488;27;19915;-68
2022/04/09 03:17:34;;;;;;;;;;;;;;;4.13;100.00;100764.56;5136145;27;20014;-67
2022/04/09 03:19:59;;;;;;;;;;;;;;;4.08;100.00;100772.53;5136148;27;20010;-68
2022/04/09 03:22:24;;;;;;;;;;;;;;;4.20;100.00;100761.84;5135800;27;19919;-68
2022/04/09 03:24:50;;;;;;;;;;;;;;;4.11;100.00;100771.63;5117366;27;20060;-68
2022/04/09 03:27:15;;;;;;;;;;;;;;;4.11;100.00;100771.63;5117514;27;20400;-68
2022/04/09 03:29:40;;;;;;;;;;;;;;;3.97;100.00;100781.53;5136120;27;19923;-68
2022/04/09 03:32:05;;;;;;;;;;;;;;;3.98;100.00;100788.50;5136257;27;19915;-68
2022/04/09 03:34:31;;;;;;;;;;;;;;;4.07;100.00;100780.44;5135682;27;19922;-67
2022/04/09 03:36:56;;;;;;;;;;;;;;;4.10;100.00;100790.91;5135639;27;19916;-68
2022/04/09 03:39:21;;;;;;;;;;;;;;;4.15;100.00;100786.44;5117027;27;19916;-68
2022/04/09 03:41:47;;;;;;;;;;;;;;;4.05;100.00;100784.88;5136018;27;19916;-68
2022/04/09 03:44:12;;;;;;;;;;;;;;;3.92;100.00;100793.88;5135559;27;19935;-68
2022/04/09 03:46:37;;;;;;;;;;;;;;;4.13;100.00;100798.72;5117023;27;19947;-68
2022/04/09 03:49:02;;;;;;;;;;;;;;;4.14;100.00;100800.50;5135449;27;19964;-68
2022/04/09 03:51:28;;;;;;;;;;;;;;;4.03;100.00;100810.31;5117076;27;20358;-68
2022/04/09 03:53:53;;;;;;;;;;;;;;;4.17;100.00;100805.69;5135076;27;19915;-67
2022/04/09 03:56:18;;;;;;;;;;;;;;;3.97;100.00;100807.81;5135002;27;19943;-68
2022/04/09 03:58:43;;;;;;;;;;;;;;;3.98;100.00;100807.78;5116478;27;19964;-68
2022/04/09 04:01:09;;;;;;;;;;;;;;;3.97;100.00;100807.81;5135147;27;20359;-67
2022/04/09 04:03:34;;;;;;;;;;;;;;;4.06;100.00;100819.03;5116601;27;19922;-67
2022/04/09 04:06:01;;;;;;;;;;;;;;;4.05;100.00;100814.63;5116760;27;19916;-68
2022/04/09 04:08:26;;;;;;;;;;;;;;;4.13;100.00;100819.75;5116484;27;19915;-67
2022/04/09 04:10:51;;;;;;;;;;;;;;;4.15;100.00;100813.59;5116504;27;19926;-68
2022/04/09 04:13:16;;;;;;;;;;;;;;;4.09;100.00;100826.84;5116393;27;19958;-67
2022/04/09 04:15:42;;;;;;;;;;;;;;;4.17;100.00;100832.84;5134603;27;19916;-68
2022/04/09 04:18:08;;;;;;;;;;;;;;;4.20;100.00;100837.19;5134737;27;19941;-67
2022/04/09 04:23:36;;;;;;;;;;;;;;;4.35;100.00;100839.53;5097017;28;20473;-67
2022/04/09 04:29:04;;;;;;;;;;;;;;;4.45;100.00;100844.63;5116329;27;20025;-68
2022/04/09 04:31:29;;;;;;;;;;;;;;;4.57;100.00;100849.66;5134606;27;19911;-68
2022/04/09 04:33:54;;;;;;;;;;;;;;;4.54;100.00;100848.81;5116177;28;20367;-68
2022/04/09 04:36:19;;;;;;;;;;;;;;;4.64;100.00;100845.16;5134457;27;19912;-68
2022/04/09 04:38:46;;;;;;;;;;;;;;;4.69;100.00;100859.97;5134596;27;19916;-68
2022/04/09 04:41:12;;;;;;;;;;;;;;;4.71;100.00;100865.19;5134413;27;19915;-68
2022/04/09 04:43:37;;;;;;;;;;;;;;;4.76;100.00;100865.94;5116201;28;19972;-68
2022/04/09 04:46:02;;;;;;;;;;;;;;;4.73;100.00;100871.28;5134191;28;19934;-68
2022/04/09 04:48:27;;;;;;;;;;;;;;;4.63;100.00;100870.56;5115790;28;20006;-68
2022/04/09 04:50:52;;;;;;;;;;;;;;;4.71;100.00;100876.56;5116051;28;20389;-69
2022/04/09 04:53:18;;;;;;;;;;;;;;;4.59;100.00;100883.81;5116306;28;19916;-72
2022/04/09 04:55:43;;;;;;;;;;;;;;;4.66;100.00;100883.66;5099663;28;19942;-72
2022/04/09 04:58:08;;;;;;;;;;;;;;;4.63;100.00;100883.72;5134221;28;20227;-68
2022/04/09 05:00:33;;;;;;;;;;;;;;;4.51;100.00;100881.31;5133949;28;19923;-68
2022/04/09 05:02:59;;;;;;;;;;;;;;;4.58;100.00;100887.34;5134512;28;19915;-68
2022/04/09 05:05:24;;;;;;;;;;;;;;;4.83;100.00;100886.00;5115888;28;19915;-69
2022/04/09 05:07:50;;;;;;;;;;;;;;;4.96;100.00;100894.53;5133931;28;19915;-69
2022/04/09 05:10:17;;;;;;;;;;;;;;;4.94;100.00;100889.31;5131212;28;19923;-75
2022/04/09 05:12:42;;;;;;;;;;;;;;;4.81;100.00;100886.94;5103825;28;19919;-68
2022/04/09 05:15:09;;;;;;;;;;;;;;;5.05;100.00;100881.19;5115735;28;20335;-69
2022/04/09 05:17:34;;;;;;;;;;;;;;;5.09;100.00;100877.63;5134098;28;20010;-68
2022/04/09 05:20:02;;;;;;;;;;;;;;;5.05;100.00;100889.97;5115885;28;20006;-69
2022/04/09 05:22:27;;;;;;;;;;;;;;;5.12;100.00;100895.97;5133445;28;19922;-70
2022/04/09 05:24:53;;;;;;;;;;;;;;;5.18;100.00;100907.25;5132634;28;20362;-68
2022/04/09 05:27:18;;;;;;;;;;;;;;;4.56;100.00;100924.19;5134446;28;19915;-69
2022/04/09 05:29:43;;;;;;;;;;;;;;;3.99;100.00;100929.50;5116214;28;19969;-71
2022/04/09 05:32:09;;;;;;;;;;;;;;;3.83;100.00;100933.25;5136063;27;19916;-69
2022/04/09 05:34:34;;;;;;;;;;;;;;;3.68;100.00;100947.44;5138170;27;19916;-68
2022/04/09 05:36:59;;;;;;;;;;;;;;;3.44;100.00;100974.00;5138478;27;19923;-68
2022/04/09 05:39:24;;;;;;;;;;;;;;;3.13;100.00;100986.63;5138226;27;19916;-70
2022/04/09 05:41:50;;;;;;;;;;;;;;;3.14;100.00;100983.09;5137986;27;19916;-70
2022/04/09 05:44:15;;;;;;;;;;;;;;;3.05;100.00;100990.19;5128110;27;20289;-70
2022/04/09 05:46:40;;;;;;;;;;;;;;;2.91;100.00;100992.06;5117268;28;19955;-71
2022/04/09 05:49:05;;;;;;;;;;;;;;;2.96;100.00;101003.41;5099038;28;19942;-71
2022/04/09 05:51:30;;;;;;;;;;;;;;;2.91;100.00;101003.44;5118059;28;19947;-68
2022/04/09 05:53:56;;;;;;;;;;;;;;;2.87;100.00;101030.56;5117135;28;20002;-68
2022/04/09 05:56:22;;;;;;;;;;;;;;;2.97;100.00;101032.25;5116516;28;20010;-68
2022/04/09 05:58:47;;;;;;;;;;;;;;;2.86;100.00;101036.72;5116694;28;19920;-68
2022/04/09 06:01:12;;;;;;;;;;;;;;;2.79;100.00;101042.00;5114717;27;19922;-68
2022/04/09 06:03:38;;;;;;;;;;;;;;;2.79;100.00;101045.50;5137652;27;20374;-68
2022/04/09 06:06:04;;;;;;;;;;;;;;;2.81;100.00;101059.47;5137265;27;20173;-67
2022/04/09 06:08:30;;;;;;;;;;;;;;;2.75;100.00;101083.13;5137510;27;19916;-68
2022/04/09 06:10:56;;;;;;;;;;;;;;;2.81;100.00;101079.59;5137418;27;19915;-69
2022/04/09 06:13:21;;;;;;;;;;;;;;;2.71;100.00;101102.38;5138032;27;20006;-69
2022/04/09 06:15:46;;;;;;;;;;;;;;;2.67;100.00;101124.28;5137012;27;19916;-68
2022/04/09 06:18:11;;;;;;;;;;;;;;;2.68;100.00;101131.25;5138264;27;19927;-67
2022/04/09 06:20:36;;;;;;;;;;;;;;;2.69;100.00;101158.34;5136736;27;19989;-67
2022/04/09 06:23:01;;;;;;;;;;;;;;;2.77;100.00;101178.38;5136833;27;19915;-69
2022/04/09 06:25:28;;;;;;;;;;;;;;;2.77;100.00;101203.75;5119236;27;19948;-74
2022/04/09 06:27:53;;;;;;;;;;;;;;;3.23;100.00;101227.97;5138734;27;19915;-68
2022/04/09 06:30:18;;;;;;;;;;;;;;;3.30;100.00;101238.41;5123637;27;19934;-67
2022/04/09 06:32:43;;;;;;;;;;;;;;;3.59;100.00;101254.81;5116432;28;20423;-68
2022/04/09 06:35:09;;;;;;;;;;;;;;;3.76;100.00;101281.81;5116214;28;19922;-67
2022/04/09 06:37:38;;;;;;;;;;;;;;;4.03;100.00;101307.88;5116079;28;19916;-67
2022/04/09 06:40:04;;;;;;;;;;;;;;;4.25;100.00;101333.09;5116031;28;20350;-68
2022/04/09 06:42:29;;;;;;;;;;;;;;;4.43;100.00;101353.03;5116170;28;19923;-68
2022/04/09 06:44:58;;;;;;;;;;;;;;;4.44;100.00;101360.06;5113702;28;19916;-68
2022/04/09 06:47:23;;;;;;;;;;;;;;;4.57;100.00;101372.19;5114416;28;20017;-67
2022/04/09 06:49:48;;;;;;;;;;;;;;;4.62;100.00;101362.50;5116225;28;19969;-67
2022/04/09 06:52:13;;;;;;;;;;;;;;;4.86;100.00;101358.72;5119465;27;19924;-67
2022/04/09 06:54:39;;;;;;;;;;;;;;;4.76;100.00;101349.22;5123629;27;19920;-67
2022/04/09 06:57:04;;;;;;;;;;;;;;;4.77;100.00;101348.31;5116750;27;20302;-67
2022/04/09 06:59:29;;;;;;;;;;;;;;;4.80;100.00;101332.50;5116841;27;19978;-67
2022/04/09 07:01:54;;;;;;;;;;;;;;;4.75;100.00;101327.28;5134198;27;19915;-67
2022/04/09 07:04:19;;;;;;;;;;;;;;;4.85;100.00;101322.78;5119050;27;19920;-67
2022/04/09 07:06:46;;;;;;;;;;;;;;;4.94;100.00;101313.03;5115737;28;19923;-68
2022/04/09 07:09:12;;;;;;;;;;;;;;;5.06;100.00;101310.22;5127691;27;19920;-68
2022/04/09 07:11:37;;;;;;;;;;;;;;;5.31;100.00;101293.19;5117873;27;19923;-68
2022/04/09 07:14:03;;;;;;;;;;;;;;;5.40;100.00;101298.38;5117601;27;20342;-69
2022/04/09 07:16:28;;;;;;;;;;;;;;;5.41;100.00;101289.56;5115310;28;19920;-73
2022/04/09 07:18:53;;;;;;;;;;;;;;;5.38;100.00;101284.34;5114114;28;19923;-67
2022/04/09 07:21:20;;;;;;;;;;;;;;;5.28;100.00;101272.19;5115482;28;19916;-71
2022/04/09 07:23:45;;;;;;;;;;;;;;;5.40;100.00;101253.59;5116710;28;19967;-68
2022/04/09 07:26:10;;;;;;;;;;;;;;;5.44;100.00;101260.53;5122085;27;19920;-66
2022/04/09 07:28:36;;;;;;;;;;;;;;;5.58;100.00;101255.91;5114171;28;19974;-68
2022/04/09 07:31:01;;;;;;;;;;;;;;;5.64;100.00;101260.25;5115015;28;19923;-67
2022/04/09 07:33:26;;;;;;;;;;;;;;;5.65;100.00;101254.06;5097021;28;19953;-67
2022/04/09 07:35:53;;;;;;;;;;;;;;;5.86;100.00;101238.78;5114599;28;19926;-67
2022/04/09 07:38:18;;;;;;;;;;;;;;;5.95;100.00;101237.78;5123594;27;19935;-68
2022/04/09 07:40:43;;;;;;;;;;;;;;;6.26;100.00;101230.19;5130412;27;19916;-68
2022/04/09 07:43:09;;;;;;;;;;;;;;;6.35;100.00;101224.72;5133311;27;19915;-67
2022/04/09 07:45:34;;;;;;;;;;;;;;;6.64;100.00;101215.31;5114541;28;20298;-67
2022/04/09 07:48:00;;;;;;;;;;;;;;;6.81;100.00;101210.53;5096461;28;20363;-68
2022/04/09 07:50:25;;;;;;;;;;;;;;;7.09;100.00;101195.81;5114547;27;19927;-67
2022/04/09 07:52:51;;;;;;;;;;;;;;;7.31;100.00;101190.94;5114126;28;20366;-67
2022/04/09 07:55:16;;;;;;;;;;;;;;;7.11;100.00;101187.88;5118283;27;19930;-68
2022/04/09 07:57:46;;;;;;;;;;;;;;;6.74;100.00;101189.59;5134941;27;19916;-67
2022/04/09 08:00:11;;;;;;;;;;;;;;;6.45;100.00;101199.88;5116399;27;19962;-67
2022/04/09 08:02:37;;;;;;;;;;;;;;;6.30;100.00;101192.28;5135057;27;19954;-67
2022/04/09 08:05:03;;;;;;;;;;;;;;;6.10;100.00;101204.09;5134792;27;19920;-68
2022/04/09 08:07:28;;;;;;;;;;;;;;;5.80;100.00;101204.59;5134773;27;19915;-68
2022/04/09 08:09:53;;;;;;;;;;;;;;;5.65;100.00;101199.59;5115485;27;20039;-68
2022/04/09 08:12:18;;;;;;;;;;;;;;;5.66;100.00;101206.59;5114580;28;19916;-67
2022/04/09 08:14:44;;;;;;;;;;;;;;;5.91;100.00;101212.34;5114343;28;19919;-68
2022/04/09 08:17:09;;;;;;;;;;;;;;;6.70;100.00;101216.94;5095824;28;19916;-67
2022/04/09 08:19:35;;;;;;;;;;;;;;;6.83;100.00;101211.38;5114203;28;19920;-67
2022/04/09 08:22:01;;;;;;;;;;;;;;;6.84;100.00;101215.75;5113969;28;20287;-67
2022/04/09 08:24:26;;;;;;;;;;;;;;;6.89;100.00;101211.25;5115133;27;19947;-67
2022/04/09 08:26:51;;;;;;;;;;;;;;;7.00;100.00;101217.16;5113870;28;19920;-67
2022/04/09 08:29:19;;;;;;;;;;;;;;;7.03;100.00;101222.38;5125021;27;19924;-67
2022/04/09 08:31:47;;;;;;;;;;;;;;;7.21;100.00;101236.94;5114112;28;19919;-68
2022/04/09 08:34:12;;;;;;;;;;;;;;;7.24;100.00;101236.88;5113840;28;19987;-68
2022/04/09 08:36:37;;;;;;;;;;;;;;;7.05;100.00;101240.81;5115375;27;19979;-68
2022/04/09 08:39:03;;;;;;;;;;;;;;;6.87;100.00;101235.97;5129162;27;19919;-67
2022/04/09 08:41:28;;;;;;;;;;;;;;;6.75;100.00;101238.84;5134415;27;19960;-67
2022/04/09 08:43:53;;;;;;;;;;;;;;;6.69;100.00;101231.06;5116013;27;19915;-67
2022/04/09 08:46:19;;;;;;;;;;;;;;;6.72;100.00;101236.25;5115940;28;19915;-68
2022/04/09 08:48:46;;;;;;;;;;;;;;;6.48;100.00;101242.91;5134772;28;19955;-67
2022/04/09 08:51:11;;;;;;;;;;;;;;;6.81;100.00;101246.63;5133609;28;19916;-68
2022/04/09 08:53:37;;;;;;;;;;;;;;;6.88;100.00;101237.69;5133724;28;19915;-67
2022/04/09 08:56:02;;;;;;;;;;;;;;;7.11;100.00;101235.41;5115605;28;20294;-67
2022/04/09 08:58:29;;;;;;;;;;;;;;;7.76;100.00;101226.81;5134373;28;20374;-66
2022/04/09 09:00:54;;;;;;;;;;;;;;;8.49;100.00;101224.00;5134503;28;19926;-67
2022/04/09 09:03:20;;;;;;;;;;;;;;;9.13;100.00;101223.81;5134531;28;19916;-67
2022/04/09 09:05:46;;;;;;;;;;;;;;;9.46;100.00;101223.66;5115903;28;19916;-67
2022/04/09 09:08:11;;;;;;;;;;;;;;;9.71;100.00;101219.28;5116635;27;19968;-68
2022/04/09 09:10:37;;;;;;;;;;;;;;;9.73;100.00;101223.66;5124370;27;19919;-68
2022/04/09 09:13:05;;;;;;;;;;;;;;;10.16;100.00;101220.44;5125476;27;20326;-68
2022/04/09 09:15:30;;;;;;;;;;;;;;;11.20;100.00;101213.88;5122339;28;19938;-67
2022/04/09 09:17:59;;;;;;;;;;;;;;;11.70;100.00;101231.34;5104693;27;20413;-67
2022/04/09 09:20:24;;;;;;;;;;;;;;;11.56;100.00;101218.59;5138106;27;19919;-67
2022/04/09 09:22:50;;;;;;;;;;;;;;;12.19;100.00;101223.91;5138172;27;19920;-68
2022/04/09 09:25:15;;;;;;;;;;;;;;;12.95;100.00;101234.66;5136795;27;19962;-68
2022/04/09 09:27:40;;;;;;;;;;;;;;;12.20;100.00;101220.31;5117105;28;19997;-65
2022/04/09 09:30:07;;;;;;;;;;;;;;;11.89;100.00;101225.22;5117179;28;19923;-66
2022/04/09 09:32:34;;;;;;;;;;;;;;;10.29;100.00;101250.97;5099076;28;19989;-66
2022/04/09 09:34:59;;;;;;;;;;;;;;;9.72;100.00;101255.53;5099270;28;19916;-66
2022/04/09 09:37:25;;;;;;;;;;;;;;;10.54;100.00;101250.00;5117422;28;19923;-66
2022/04/09 09:39:51;;;;;;;;;;;;;;;10.25;100.00;101251.97;5099101;28;20018;-66
2022/04/09 09:42:20;;;;;;;;;;;;;;;9.79;100.00;101246.44;5117323;28;19916;-66
2022/04/09 09:44:45;;;;;;;;;;;;;;;10.07;100.00;101252.59;5116943;28;19946;-66
2022/04/09 09:47:17;;;;;;;;;;;;;;;9.78;100.00;101257.97;5117069;28;19916;-66
2022/04/09 09:49:58;;;;;;;;;;;;;;;10.45;100.00;101266.28;5122219;27;19916;-67
2022/04/09 09:52:28;;;;;;;;;;;;;;;10.65;100.00;101255.81;5117193;27;20065;-66
2022/04/09 09:54:53;;;;;;;;;;;;;;;10.62;100.00;101257.72;5098563;28;19920;-66
2022/04/09 09:57:20;;;;;;;;;;;;;;;11.36;100.00;101250.41;5116617;28;19922;-66
2022/04/09 09:59:45;;;;;;;;;;;;;;;12.44;100.00;101254.78;5121017;27;19922;-66
2022/04/09 10:02:14;;;;;;;;;;;;;;;12.61;100.00;101270.91;5137277;27;19915;-67
2022/04/09 10:04:40;;;;;;;;;;;;;;;11.43;100.00;101273.19;5137454;27;19915;-67
2022/04/09 10:07:05;;;;;;;;;;;;;;;11.18;100.00;101263.56;5115391;27;19916;-67
2022/04/09 10:09:30;;;;;;;;;;;;;;;12.35;100.00;101262.25;5116752;28;19923;-67
2022/04/09 10:11:55;;;;;;;;;;;;;;;13.14;100.00;101280.91;5116780;28;20294;-67
2022/04/09 10:14:22;;;;;;;;;;;;;;;11.77;100.00;101284.25;5098105;28;19916;-67
2022/04/09 10:16:48;;;;;;;;;;;;;;;11.12;100.00;101280.63;5116328;28;19938;-67
2022/04/09 10:19:16;;;;;;;;;;;;;;;11.21;100.00;101290.91;5115080;28;20295;-67
2022/04/09 10:21:44;;;;;;;;;;;;;;;10.33;100.00;101279.13;5116210;28;19916;-68
2022/04/09 10:24:18;;;;;;;;;;;;;;;10.19;100.00;101284.03;5098693;28;20018;-67
2022/04/09 10:26:44;;;;;;;;;;;;;;;10.31;100.00;101287.13;5117009;28;19938;-67
2022/04/09 10:29:10;;;;;;;;;;;;;;;10.23;100.00;101283.88;5116470;28;20306;-67
2022/04/09 10:31:36;;;;;;;;;;;;;;;10.55;100.00;101278.31;5127560;27;19920;-67
2022/04/09 10:34:03;;;;;;;;;;;;;;;10.52;100.00;101286.41;5118645;27;19922;-68
2022/04/09 10:36:40;;;;;;;;;;;;;;;10.39;100.00;101293.06;5129214;27;19973;-68
2022/04/09 10:39:19;;;;;;;;;;;;;;;10.17;100.00;101296.47;5127451;27;19960;-68
2022/04/09 10:41:44;;;;;;;;;;;;;;;10.28;100.00;101297.88;5115900;28;19920;-68
2022/04/09 10:44:09;;;;;;;;;;;;;;;11.51;100.00;101308.34;5115845;28;19985;-68
2022/04/09 10:46:35;;;;;;;;;;;;;;;13.09;100.00;101303.41;5116021;28;19916;-68
2022/04/09 10:49:15;;;;;;;;;;;;;;;12.27;100.00;101312.31;5116141;28;19959;-68
2022/04/09 10:52:06;;;;;;;;;;;;;;;10.94;100.00;101310.53;5116072;28;19916;-67
2022/04/09 10:54:34;;;;;;;;;;;;;;;13.10;100.00;101313.13;5111361;28;19922;-69
2022/04/09 10:57:09;;;;;;;;;;;;;;;14.31;100.00;101313.50;5097659;28;20370;-68
2022/04/09 10:59:36;;;;;;;;;;;;;;;12.88;100.00;101313.19;5119934;27;20298;-69
2022/04/09 11:02:02;;;;;;;;;;;;;;;12.63;100.00;101317.00;5117784;27;19960;-69
2022/04/09 11:04:36;;;;;;;;;;;;;;;12.61;100.00;101326.84;5128827;27;19923;-69
2022/04/09 11:07:02;;;;;;;;;;;;;;;12.80;100.00;101320.66;5097344;28;19916;-69
2022/04/09 11:10:06;;;;;;;;;;;;;;;13.41;100.00;101330.31;5097854;28;19920;-68
2022/04/09 11:12:37;;;;;;;;;;;;;;;15.18;100.00;101328.44;5052915;28;19917;-69
2022/04/09 11:15:03;;;;;;;;;;;;;;;14.32;100.00;101336.59;5036026;28;20396;-69
2022/04/09 11:17:32;;;;;;;;;;;;;;;14.43;100.00;101327.09;5083744;28;19916;-69
2022/04/09 11:39:14;;;;;;;2.50;0.43;;;;;;;12.38;100.00;101342.97;5046158;27;20887;-66
2022/04/09 11:41:39;;;;;;;5.20;0.50;;;;;;;11.59;100.00;101343.50;5043058;28;20041;-66
2022/04/09 11:44:05;;;;;;;1.80;0.60;;;;;;;11.07;100.00;101362.34;5042363;28;20129;-66
2022/04/09 11:46:42;;;;;;;4.88;0.63;;;;;;;11.21;100.00;101364.47;5042495;28;20029;-67
2022/04/09 11:49:07;;;;;;;0.55;0.40;;;;;;;10.70;100.00;101353.91;5042087;28;20029;-67
2022/04/09 11:51:35;;;;;;;2.35;0.63;;;;;;;11.17;100.00;101361.09;5042210;28;20036;-66
2022/04/09 11:54:13;;;;;;;0.93;0.35;;;;;;;10.82;100.00;101364.97;5042687;28;20033;-67
2022/04/09 11:56:39;;;;;;;6.00;0.82;;;;;;;12.90;100.00;101355.78;5059809;28;20044;-68
2022/04/09 11:59:12;;;;;;;0.45;0.20;;;;;;;13.75;100.00;101366.97;5063072;28;20033;-68
2022/04/09 12:01:37;;;;;;;1.52;0.55;;;;;;;16.48;100.00;101374.69;5061433;28;20411;-69
2022/04/09 12:04:03;;;;;;;1.00;0.30;;;;;;;16.88;100.00;101376.72;5034018;28;20034;-68
2022/04/09 12:06:28;;;;;;;1.48;0.30;;;;;;;14.81;100.00;101392.00;5022093;28;20037;-69
2022/04/09 12:08:53;;;;;;;1.02;0.28;;;;;;;12.38;100.00;101388.25;5032082;28;20025;-69
2022/04/09 12:11:20;;;;;;;4.35;0.50;;;;;;;11.74;100.00;101385.50;5041833;28;20040;-69
2022/04/09 12:13:46;;;;;;;0.70;0.32;;;;;;;12.00;100.00;101373.84;5042393;28;20041;-69
2022/04/09 12:16:16;;;;;;;0.77;0.20;;;;;;;12.70;100.00;101377.13;5042504;28;20124;-69
2022/04/09 12:18:42;;;;;;;7.95;0.50;;;;;;;14.48;100.00;101381.16;5041578;28;20025;-69
2022/04/09 12:21:22;;;;;;;1.17;0.20;;;;;;;13.50;100.00;101385.06;5042011;28;20045;-69
2022/04/09 12:24:00;;;;;;;;;;;;;;;12.72;100.00;101389.44;5042206;28;20037;-68
2022/04/09 12:26:26;;;;;;;0.55;0.20;;;;;;;12.16;100.00;101382.94;5041539;28;19917;-69
2022/04/09 12:29:12;;;;;;;6.88;1.13;;;;;;;12.44;100.00;101391.53;5041712;28;20031;-68
2022/04/09 12:31:42;;;;;;;0.30;0.20;;;;;;;12.16;100.00;101394.44;5041155;28;20037;-68
2022/04/09 12:34:07;;;;;;;0.30;0.20;;;;;;;11.63;100.00;101410.81;5041963;28;20382;-68
2022/04/09 12:36:33;;;;;;;0.70;0.35;;;;;;;13.83;100.00;101388.84;5037923;28;20330;-69
2022/04/09 12:39:00;;;;;;;1.45;0.50;;;;;;;12.83;100.00;101399.63;5033415;28;20072;-68
2022/04/09 12:41:26;;;;;;;0.75;0.43;;;;;;;11.83;100.00;101411.75;5093100;27;20480;-68
2022/04/09 12:43:56;;;;;;;2.58;0.30;;;;;;;12.63;100.00;101397.81;5060192;27;20079;-69
2022/04/09 12:46:21;;;;;;;1.30;0.40;;;;;;;13.98;100.00;101403.28;5027642;28;20065;-69
2022/04/09 12:48:51;;;;;;;1.75;0.60;;;;;;;13.84;100.00;101402.13;5028773;28;20125;-68
2022/04/09 12:51:21;;;;;;;0.45;0.40;;;;;;;14.27;100.00;101413.44;5028250;28;20041;-68